Impacts METAR Board
IDs:

KACT - Waco Rgnl, TX, US

Updated at: 1300 UTC 20 Oct 2021
Potential Impact None Slight Moderate High
Time 20/01Z 20/02Z 20/03Z 20/04Z 20/05Z 20/06Z 20/07Z 20/08Z 20/09Z 20/10Z 20/11Z 20/12Z 20/13Z
Temp74 72 71 71 69 70 69 68 67 67 67 66 68
Dewpt59 58 59 59 60 63 64 65 64 64 65 64 65
Altim30.00 30.01 30.02 30.03 30.04 30.05 30.05 30.06 30.07 30.07 30.08 30.08 30.09
VIS10 10 10 10 10 10 10 10 10 10 10 10 10
CIG-- -- -- -- -- -- -- -- 9 -- 31 33 31
CoverCLRCLRCLRCLRCLRCLRCLRFEWBKNFEWOVCBKNOVC
FltCatVFRVFRVFRVFRVFRVFRVFRVFRIFRVFRVFRVFRVFR
WX--------------------------
WDir150130140140140160180180200190180200170
WSpd11 8 10 12 12 14 13 9 7 8 7 6 6
WGst-- -- -- -- -- -- -- -- -- -- -- -- --
Raw hourly METARs
KACT 200051Z 15011KT 10SM CLR 23/15 A3000 RMK AO2 SLP153 T02330150
KACT 200151Z 13008KT 10SM CLR 22/14 A3001 RMK AO2 SLP156 T02220144
KACT 200251Z 14010KT 10SM CLR 22/15 A3002 RMK AO2 SLP161 T02170150 53012
KACT 200351Z AUTO 14012KT 10SM CLR 22/15 A3003 RMK AO2 SLP162 T02170150
KACT 200451Z AUTO 14012KT 10SM CLR 21/16 A3004 RMK AO2 SLP167 T02060156
KACT 200551Z AUTO 16014KT 10SM CLR 21/17 A3005 RMK AO2 SLP168 T02110172 10233 20206 402780150 51009
KACT 200651Z AUTO 18013KT 10SM CLR 21/18 A3005 RMK AO2 SLP169 T02060178
KACT 200805Z AUTO 18009KT 10SM FEW011 FEW019 20/18 A3006 RMK AO2 T02000183
KACT 200902Z AUTO 20007KT 10SM BKN009 BKN017 19/18 A3007 RMK AO2 T01940178
KACT 200951Z AUTO 19008KT 10SM FEW024 19/18 A3007 RMK AO2 SLP176 T01940178
KACT 201051Z AUTO 18007KT 10SM OVC031 19/18 A3008 RMK AO2 SLP179 T01940183
KACT 201151Z 20006KT 10SM FEW009 BKN033 19/18 A3008 RMK AO2 SLP180 T01890178 10211 20189 51003
KACT 201251Z 17006KT 10SM FEW008 OVC031 20/18 A3009 RMK AO2 SLP183 T02000183